Time;durP1;ratioP1;P1;durP2;ratioP2;P2;SDS_P1;SDS_P2;PMS_P1;PMS_P2;Temp;Humidity;BMP_temperature;BMP_pressure;BME280_temperature;BME280_humidity;BME280_pressure;Samples;Min_cycle;Max_cycle;Signal;HPM_P1;HPM_P2
2021/06/19 00:00:48;;;;;;;10.43;8.48;;;;;;;19.47;60.98;99121.49;2168431;82;20996;-82
2021/06/19 00:03:49;;;;;;;154.27;17.73;;;;;;;19.69;59.08;99115.34;2145351;82;20977;-82
2021/06/19 00:06:50;;;;;;;11.30;9.70;;;;;;;19.47;59.75;99114.00;2167899;82;21115;-83
2021/06/19 00:09:52;;;;;;;16.60;6.72;;;;;;;20.13;60.83;99101.63;2168059;82;20925;-80
2021/06/19 00:12:52;;;;;;;50.90;9.08;;;;;;;20.07;59.06;99105.28;2168197;82;20982;-81
2021/06/19 00:15:54;;;;;;;13.72;6.83;;;;;;;19.76;59.40;99095.77;2167937;82;21028;-81
2021/06/19 00:18:54;;;;;;;13.40;7.05;;;;;;;19.51;59.76;99102.00;2167990;82;20909;-80
2021/06/19 00:21:56;;;;;;;8.95;6.45;;;;;;;19.29;60.26;99100.22;2168041;82;20993;-80
2021/06/19 00:24:56;;;;;;;7.50;6.55;;;;;;;19.13;60.76;99101.86;2168032;82;20929;-81
2021/06/19 00:27:57;;;;;;;9.43;6.37;;;;;;;18.99;61.33;99100.76;2168043;82;20980;-80
2021/06/19 00:30:58;;;;;;;8.25;6.37;;;;;;;18.90;61.57;99100.47;2167921;82;21376;-80
2021/06/19 00:34:00;;;;;;;9.18;6.55;;;;;;;18.82;61.75;99101.05;2167722;82;20957;-80
2021/06/19 00:37:01;;;;;;;7.80;6.78;;;;;;;18.71;62.21;99106.98;2168120;82;20933;-81
2021/06/19 00:40:02;;;;;;;7.53;6.53;;;;;;;18.59;62.35;99113.31;2168063;82;21393;-81
2021/06/19 00:43:03;;;;;;;7.10;6.53;;;;;;;18.50;62.73;99107.30;2168005;82;20945;-81
2021/06/19 00:46:05;;;;;;;7.65;6.90;;;;;;;18.41;63.12;99106.99;2167932;82;21373;-81
2021/06/19 00:49:06;;;;;;;9.13;6.55;;;;;;;18.32;63.35;99109.78;2168156;82;20962;-81
2021/06/19 00:52:07;;;;;;;9.53;6.12;;;;;;;18.21;63.76;99108.62;2167869;82;20973;-81
2021/06/19 00:55:07;;;;;;;6.97;6.42;;;;;;;18.03;63.96;99103.12;2168071;82;20964;-81
2021/06/19 00:58:08;;;;;;;7.87;6.40;;;;;;;17.94;64.34;99101.92;2168010;82;20898;-81
2021/06/19 01:01:10;;;;;;;8.53;6.42;;;;;;;17.81;64.59;99102.98;2168217;82;20972;-81
2021/06/19 01:04:11;;;;;;;7.47;6.47;;;;;;;17.69;64.93;99099.19;2167882;82;21361;-80
2021/06/19 01:07:11;;;;;;;9.33;6.87;;;;;;;17.62;65.26;99100.99;2168153;82;20913;-81
2021/06/19 01:10:12;;;;;;;10.13;6.92;;;;;;;17.53;65.71;99102.42;2168015;82;20917;-80
2021/06/19 01:13:13;;;;;;;6.95;6.30;;;;;;;17.41;65.82;99101.25;2168042;82;20917;-82
2021/06/19 01:16:14;;;;;;;7.92;6.87;;;;;;;17.32;66.40;99098.69;2168212;82;21359;-80
2021/06/19 01:19:15;;;;;;;12.68;6.50;;;;;;;17.66;66.55;99092.59;2168352;82;21336;-80
2021/06/19 01:22:16;;;;;;;8.00;6.25;;;;;;;17.60;66.08;99096.18;2167798;82;20997;-79
2021/06/19 01:25:18;;;;;;;7.70;6.97;;;;;;;17.47;66.17;99097.22;2167909;82;21346;-79
2021/06/19 01:28:19;;;;;;;8.75;6.97;;;;;;;17.38;66.61;99094.24;2167879;82;21329;-79
2021/06/19 01:31:20;;;;;;;9.25;6.72;;;;;;;17.30;66.82;99097.83;2167909;82;20985;-80
2021/06/19 01:34:21;;;;;;;8.78;6.92;;;;;;;17.20;67.03;99094.42;2167650;82;20941;-80
2021/06/19 01:37:22;;;;;;;88.95;79.53;;;;;;;17.19;67.35;99100.14;2167950;82;20969;-80
2021/06/19 01:40:23;;;;;;;9.40;8.45;;;;;;;17.17;67.51;99096.64;2167932;82;21040;-80
2021/06/19 01:43:25;;;;;;;8.88;7.33;;;;;;;17.12;67.33;99099.77;2167985;82;20981;-80
2021/06/19 01:46:26;;;;;;;8.80;7.12;;;;;;;17.06;67.34;99101.16;2167898;82;21514;-81
2021/06/19 01:49:26;;;;;;;8.58;6.85;;;;;;;16.89;67.49;99107.04;2167879;82;20961;-80
2021/06/19 01:52:27;;;;;;;8.90;7.83;;;;;;;16.89;67.49;99107.04;2167797;82;21180;-81
2021/06/19 01:55:28;;;;;;;220.00;26.02;;;;;;;16.82;67.89;99111.49;2167970;82;20905;-80
2021/06/19 01:58:30;;;;;;;14.03;8.75;;;;;;;16.82;68.33;99118.09;2167723;82;20980;-80
2021/06/19 02:01:31;;;;;;;13.78;8.43;;;;;;;17.44;73.56;99111.33;2167644;82;20948;-79
2021/06/19 02:04:32;;;;;;;10.85;8.75;;;;;;;19.15;70.88;99109.32;2167799;82;21016;-80
2021/06/19 02:07:33;;;;;;;54.88;11.08;;;;;;;20.32;67.35;99098.52;2167870;82;20956;-80
2021/06/19 02:10:34;;;;;;;17.02;8.83;;;;;;;21.00;64.14;99101.75;2168269;82;21341;-78
2021/06/19 02:13:35;;;;;;;12.00;8.25;;;;;;;21.29;62.41;99095.70;2167606;82;20953;-78
2021/06/19 02:16:38;;;;;;;14.25;9.05;;;;;;;21.40;61.22;99097.59;2167548;82;21357;-79
2021/06/19 02:19:39;;;;;;;8.78;8.00;;;;;;;21.51;60.41;99092.86;2167923;82;21341;-80
2021/06/19 02:22:40;;;;;;;12.30;8.10;;;;;;;21.47;59.58;99091.66;2167786;82;21329;-79
2021/06/19 02:25:41;;;;;;;10.60;8.63;;;;;;;21.61;59.37;99093.00;2167788;82;20988;-80
2021/06/19 02:28:42;;;;;;;10.68;9.35;;;;;;;21.76;58.16;99093.50;2167765;82;20989;-79
2021/06/19 02:31:43;;;;;;;16.93;9.88;;;;;;;21.56;57.63;99096.25;2167573;82;20980;-80
2021/06/19 02:34:44;;;;;;;9.30;8.40;;;;;;;21.45;57.65;99098.34;2167937;82;21309;-81
2021/06/19 02:37:45;;;;;;;8.73;7.28;;;;;;;20.94;55.66;99096.61;2168214;82;20936;-82
2021/06/19 02:40:46;;;;;;;8.28;7.40;;;;;;;19.78;56.42;99104.56;2168247;82;20928;-80
2021/06/19 02:43:46;;;;;;;10.93;7.55;;;;;;;18.93;57.95;99096.45;2168183;82;20925;-82
2021/06/19 02:46:47;;;;;;;12.05;8.08;;;;;;;18.33;59.19;99096.54;2168267;82;20937;-82
2021/06/19 02:49:48;;;;;;;8.48;7.40;;;;;;;17.87;60.51;99099.39;2168020;82;20957;-81
2021/06/19 02:52:49;;;;;;;8.30;7.50;;;;;;;17.53;61.59;99097.14;2170846;82;20968;-80
2021/06/19 02:55:50;;;;;;;10.30;7.78;;;;;;;17.28;62.49;99096.97;2170805;82;20917;-81
2021/06/19 02:58:51;;;;;;;7.62;7.03;;;;;;;17.04;63.22;99096.34;2170765;82;21354;-82
2021/06/19 03:01:52;;;;;;;8.68;7.62;;;;;;;16.85;64.05;99101.37;2170772;82;20987;-81
2021/06/19 03:04:53;;;;;;;8.08;7.37;;;;;;;16.73;64.69;99105.43;2170752;82;20957;-81
2021/06/19 03:07:54;;;;;;;7.90;7.10;;;;;;;16.70;65.17;99109.41;2170949;82;20945;-82
2021/06/19 03:10:55;;;;;;;8.00;7.25;;;;;;;16.61;65.46;99105.50;2170975;82;21421;-82
2021/06/19 03:13:57;;;;;;;11.28;8.20;;;;;;;16.53;65.85;99104.25;2170553;82;20964;-81
2021/06/19 03:16:58;;;;;;;8.70;7.90;;;;;;;16.44;65.98;99101.20;2171026;82;20988;-80
2021/06/19 03:19:58;;;;;;;9.03;8.33;;;;;;;16.42;66.33;99104.30;2170994;82;20921;-80
2021/06/19 03:23:00;;;;;;;9.25;7.90;;;;;;;16.43;66.65;99106.05;2171232;82;21025;-81
2021/06/19 03:26:01;;;;;;;14.78;8.18;;;;;;;16.41;66.86;99109.13;2170886;82;20933;-80
2021/06/19 03:29:02;;;;;;;9.00;8.10;;;;;;;16.43;67.10;99107.36;2170935;82;21193;-81
2021/06/19 03:32:02;;;;;;;8.90;8.00;;;;;;;16.48;67.21;99116.58;2170850;82;20973;-80
2021/06/19 03:35:03;;;;;;;11.08;9.50;;;;;;;16.52;67.40;99111.72;2170894;82;20909;-81
2021/06/19 03:38:07;;;;;;;14.18;9.85;;;;;;;16.63;67.58;99112.51;2170532;82;20921;-82
2021/06/19 03:41:07;;;;;;;9.93;8.98;;;;;;;16.74;67.50;99114.64;2170652;82;21017;-80
2021/06/19 03:44:08;;;;;;;9.75;8.58;;;;;;;16.85;67.62;99111.91;2171013;82;20985;-80
2021/06/19 03:47:09;;;;;;;8.88;7.97;;;;;;;17.36;70.01;99113.62;2171165;82;20917;-80
2021/06/19 03:50:10;;;;;;;75.87;13.53;;;;;;;19.66;65.66;99103.04;2170437;82;20921;-80
2021/06/19 03:53:11;;;;;;;11.15;9.30;;;;;;;19.66;65.66;99103.04;2168629;82;21384;-81
2021/06/19 03:56:12;;;;;;;12.28;8.83;;;;;;;20.45;63.93;99116.81;2168724;82;20933;-80
2021/06/19 03:59:13;;;;;;;10.03;9.13;;;;;;;21.08;62.08;99110.39;2168541;82;20969;-81
2021/06/19 04:02:14;;;;;;;12.23;9.15;;;;;;;21.65;60.44;99119.48;2168483;82;20980;-82
2021/06/19 04:05:15;;;;;;;90.32;16.60;;;;;;;22.06;58.57;99113.89;2168111;82;20925;-80
2021/06/19 04:08:16;;;;;;;15.18;8.55;;;;;;;22.08;57.10;99109.84;2168537;82;20897;-80
2021/06/19 04:11:17;;;;;;;10.93;8.00;;;;;;;22.07;56.87;99106.78;2168296;82;20984;-81
2021/06/19 04:14:18;;;;;;;8.68;7.87;;;;;;;22.15;56.42;99108.28;2168277;82;21029;-82
2021/06/19 04:17:19;;;;;;;9.25;8.33;;;;;;;22.26;56.48;99107.95;2168197;82;20996;-82
2021/06/19 04:20:20;;;;;;;22.25;20.02;;;;;;;22.38;56.48;99107.56;2168427;82;20901;-83
2021/06/19 04:23:21;;;;;;;15.78;11.48;;;;;;;22.56;56.22;99107.47;2168298;82;21037;-81
2021/06/19 04:26:22;;;;;;;8.18;7.47;;;;;;;22.73;55.85;99098.47;2168328;82;20929;-82
2021/06/19 04:29:23;;;;;;;8.30;7.40;;;;;;;22.90;55.59;99095.27;2168246;82;20961;-83
2021/06/19 04:32:24;;;;;;;11.45;7.92;;;;;;;23.10;55.48;99093.25;2168231;82;20981;-84
2021/06/19 04:35:25;;;;;;;59.50;12.82;;;;;;;23.29;55.29;99090.81;2168192;82;20994;-81
2021/06/19 04:38:26;;;;;;;11.30;7.67;;;;;;;23.39;54.96;99083.77;2168360;82;20925;-82
2021/06/19 04:45:15;;;;;;;34.92;9.10;;;;;;;23.82;54.67;99093.77;2145494;82;21048;-82
2021/06/19 04:47:33;;;;;;;12.35;7.95;;;;;;;24.04;53.78;99089.81;2164700;82;21009;-82
2021/06/19 04:50:34;;;;;;;14.28;7.20;;;;;;;24.29;53.14;99091.11;2168150;82;21035;-82
2021/06/19 04:53:35;;;;;;;8.35;6.90;;;;;;;24.58;52.89;99089.94;2170818;82;21003;-83
2021/06/19 04:56:36;;;;;;;56.15;47.73;;;;;;;24.88;52.06;99089.59;2170765;82;20905;-82
2021/06/19 04:59:37;;;;;;;32.10;14.55;;;;;;;25.05;51.30;99091.10;2170839;82;21025;-83
2021/06/19 05:02:38;;;;;;;8.95;7.42;;;;;;;25.15;51.33;99084.46;2170880;82;20988;-82
2021/06/19 05:05:39;;;;;;;12.55;7.22;;;;;;;25.39;50.95;99085.19;2170619;82;21004;-80
2021/06/19 05:08:40;;;;;;;12.40;6.90;;;;;;;25.55;50.29;99081.36;2170686;82;20960;-80
2021/06/19 05:11:41;;;;;;;8.00;6.22;;;;;;;25.74;49.99;99079.61;2170539;82;20985;-81
2021/06/19 05:14:42;;;;;;;8.00;5.67;;;;;;;25.97;49.77;99077.20;2170709;82;20961;-82
2021/06/19 05:17:43;;;;;;;8.35;6.60;;;;;;;26.17;48.74;99075.82;2170542;82;20988;-80
2021/06/19 05:20:44;;;;;;;10.72;7.20;;;;;;;26.30;48.89;99077.43;2170726;82;20995;-80
2021/06/19 05:23:45;;;;;;;8.05;6.92;;;;;;;26.34;48.18;99081.73;2170521;82;20921;-81
2021/06/19 05:26:48;;;;;;;7.87;5.30;;;;;;;26.40;47.51;99077.41;2170498;82;20924;-80
2021/06/19 05:29:49;;;;;;;7.75;5.08;;;;;;;26.43;47.62;99083.95;2170611;82;20969;-81
2021/06/19 05:32:50;;;;;;;6.85;4.97;;;;;;;26.50;46.36;99077.83;2170502;81;20976;-79
2021/06/19 05:35:51;;;;;;;7.45;5.00;;;;;;;26.73;45.74;99075.34;2170430;82;20894;-81
2021/06/19 05:38:51;;;;;;;10.32;5.35;;;;;;;26.90;45.66;99074.05;2170236;82;20929;-76
2021/06/19 05:41:52;;;;;;;11.18;4.62;;;;;;;27.06;44.92;99076.38;2169778;82;20948;-77
2021/06/19 05:44:53;;;;;;;8.63;4.45;;;;;;;26.89;44.86;99072.32;2170008;82;20929;-80
2021/06/19 05:47:54;;;;;;;8.90;4.55;;;;;;;26.96;44.82;99074.61;2170615;82;20988;-81
2021/06/19 05:50:55;;;;;;;6.85;4.22;;;;;;;27.09;44.25;99073.53;2168884;82;21001;-81
2021/06/19 05:53:56;;;;;;;7.75;4.47;;;;;;;27.16;43.75;99084.33;2160388;82;21020;-81
2021/06/19 05:56:57;;;;;;;4.70;4.30;;;;;;;27.42;43.45;99076.73;2160439;82;20965;-80
2021/06/19 05:59:58;;;;;;;8.80;4.15;;;;;;;27.47;43.75;99070.18;2160448;82;21009;-82
2021/06/19 06:02:59;;;;;;;4.85;4.33;;;;;;;27.57;42.56;99064.72;2160440;82;21116;-80
2021/06/19 06:06:00;;;;;;;5.22;3.70;;;;;;;27.72;42.59;99061.70;2160271;82;20957;-81
2021/06/19 06:09:01;;;;;;;5.80;4.20;;;;;;;27.83;41.99;99071.41;2160571;82;20921;-80
2021/06/19 06:12:02;;;;;;;7.20;3.95;;;;;;;27.87;41.38;99076.13;2160432;82;21385;-80
2021/06/19 06:15:03;;;;;;;5.40;3.90;;;;;;;27.93;41.50;99073.11;2160340;82;21374;-80
2021/06/19 06:18:04;;;;;;;7.28;3.95;;;;;;;28.03;41.60;99070.78;2160223;82;21426;-79
2021/06/19 06:21:07;;;;;;;4.87;3.92;;;;;;;28.20;41.33;99066.67;2160463;82;21025;-79
2021/06/19 06:24:08;;;;;;;6.17;3.83;;;;;;;28.34;41.44;99071.30;2160705;82;21022;-82
2021/06/19 06:27:09;;;;;;;6.37;4.10;;;;;;;28.56;41.29;99073.13;2160522;82;20910;-80
2021/06/19 06:30:10;;;;;;;4.58;3.90;;;;;;;28.56;40.17;99069.10;2160023;82;20954;-79
2021/06/19 06:33:11;;;;;;;5.50;3.87;;;;;;;28.63;39.66;99065.61;2160279;82;20988;-81
2021/06/19 06:36:12;;;;;;;6.37;3.70;;;;;;;28.59;39.89;99068.06;2160327;82;20956;-80
2021/06/19 06:39:13;;;;;;;6.00;3.77;;;;;;;28.63;40.03;99068.30;2160350;82;20925;-80
2021/06/19 06:42:14;;;;;;;8.53;4.17;;;;;;;28.79;40.09;99069.13;2160662;82;20997;-81
2021/06/19 06:45:15;;;;;;;118.02;106.58;;;;;;;28.86;39.44;99069.19;2160510;82;20945;-79
2021/06/19 06:48:17;;;;;;;15.70;9.53;;;;;;;28.90;39.71;99073.91;2160554;82;21495;-79
2021/06/19 06:51:19;;;;;;;10.23;3.62;;;;;;;28.86;39.60;99070.53;2159629;82;21040;-79
2021/06/19 06:54:20;;;;;;;7.42;3.65;;;;;;;28.99;39.38;99073.36;2160152;82;21024;-82
2021/06/19 06:57:21;;;;;;;4.28;3.27;;;;;;;28.93;39.51;99074.59;2160448;82;20897;-79
2021/06/19 07:00:22;;;;;;;5.67;3.40;;;;;;;29.00;39.66;99074.61;2160319;82;20969;-80
2021/06/19 07:03:23;;;;;;;8.23;3.58;;;;;;;29.24;39.73;99079.47;2160740;81;20989;-81
2021/06/19 07:06:24;;;;;;;5.35;3.45;;;;;;;29.20;39.49;99080.61;2160773;82;20997;-80
2021/06/19 07:09:25;;;;;;;4.83;3.62;;;;;;;29.25;39.67;99082.54;2160538;82;20894;-80
2021/06/19 07:12:26;;;;;;;17.85;4.35;;;;;;;29.39;39.14;99074.02;2160456;82;21213;-80
2021/06/19 07:15:27;;;;;;;5.05;3.40;;;;;;;29.40;39.35;99073.06;2160393;82;20937;-80
2021/06/19 07:18:28;;;;;;;7.78;3.58;;;;;;;29.67;39.43;99069.20;2160360;82;20906;-79
2021/06/19 07:21:30;;;;;;;4.70;3.42;;;;;;;29.68;39.10;99071.41;2160401;82;21298;-80
2021/06/19 07:24:31;;;;;;;4.70;3.10;;;;;;;29.73;38.85;99076.02;2160485;82;20930;-78
2021/06/19 07:27:32;;;;;;;6.30;3.00;;;;;;;29.58;38.79;99075.16;2160463;82;20953;-80
2021/06/19 07:30:33;;;;;;;6.03;3.20;;;;;;;29.67;38.83;99075.92;2159993;82;21024;-79
2021/06/19 07:33:34;;;;;;;5.83;3.12;;;;;;;29.73;39.01;99076.89;2160350;82;20985;-80
2021/06/19 07:36:40;;;;;;;3.72;3.17;;;;;;;29.75;38.82;99073.63;2160433;82;20929;-79
2021/06/19 07:39:38;;;;;;;8.10;3.30;;;;;;;29.84;38.93;99072.17;2160249;82;20964;-78
2021/06/19 07:42:43;;;;;;;46.70;40.90;;;;;;;29.89;38.79;99071.40;2160714;82;21096;-81
2021/06/19 07:45:44;;;;;;;5.75;3.83;;;;;;;29.80;38.87;99067.47;2160616;82;20965;-79
2021/06/19 07:48:45;;;;;;;6.30;3.05;;;;;;;29.78;38.69;99072.08;2160627;82;20985;-80
2021/06/19 07:51:45;;;;;;;5.33;3.30;;;;;;;29.92;38.39;99064.95;2160297;80;21340;-79
2021/06/19 07:54:47;;;;;;;6.22;3.50;;;;;;;29.95;38.61;99060.25;2160294;82;20956;-79
2021/06/19 07:57:49;;;;;;;6.37;3.00;;;;;;;30.06;38.61;99057.77;2160486;82;20901;-80
2021/06/19 08:00:50;;;;;;;8.63;3.83;;;;;;;30.30;38.27;99053.95;2160448;82;21032;-80
2021/06/19 08:03:51;;;;;;;6.62;3.40;;;;;;;30.47;38.24;99056.05;2160469;81;21231;-81
2021/06/19 08:06:52;;;;;;;8.80;3.62;;;;;;;30.64;37.78;99067.47;2160409;82;20957;-81
2021/06/19 08:09:53;;;;;;;6.22;3.33;;;;;;;30.56;37.45;99059.48;2160083;82;20926;-81
2021/06/19 08:12:54;;;;;;;3.47;3.17;;;;;;;30.50;37.80;99056.72;2160570;82;21013;-81
2021/06/19 08:15:57;;;;;;;14.90;3.17;;;;;;;30.51;38.06;99055.75;2160366;82;21342;-81
2021/06/19 08:18:58;;;;;;;10.88;2.95;;;;;;;30.56;38.13;99059.48;2160761;82;20962;-80
2021/06/19 08:21:59;;;;;;;7.60;2.80;;;;;;;30.48;37.71;99053.74;2160468;82;20941;-80
2021/06/19 08:25:00;;;;;;;6.08;3.12;;;;;;;30.53;37.86;99049.78;2160525;82;20960;-82
2021/06/19 08:28:01;;;;;;;6.30;3.10;;;;;;;30.63;37.05;99046.88;2160469;82;20953;-81
2021/06/19 08:31:02;;;;;;;5.00;3.12;;;;;;;30.68;36.50;99051.48;2160599;82;21029;-79
2021/06/19 08:34:03;;;;;;;3.60;2.52;;;;;;;30.74;36.12;99055.11;2160475;82;20989;-80
2021/06/19 08:37:05;;;;;;;5.28;3.00;;;;;;;30.81;36.58;99061.43;2160434;82;20974;-80
2021/06/19 08:40:06;;;;;;;14.45;3.90;;;;;;;30.84;36.50;99051.79;2160586;82;20977;-80
2021/06/19 08:43:08;;;;;;;44.73;40.25;;;;;;;30.82;36.13;99050.55;2160701;82;20989;-78
2021/06/19 08:46:09;;;;;;;4.20;3.80;;;;;;;30.79;36.43;99057.49;2160237;82;20969;-79
2021/06/19 08:49:10;;;;;;;3.22;2.92;;;;;;;30.74;36.27;99053.77;2160666;82;20985;-80
2021/06/19 08:52:11;;;;;;;5.42;3.00;;;;;;;30.78;36.38;99051.72;2163868;82;21320;-80
2021/06/19 08:55:14;;;;;;;7.75;3.30;;;;;;;30.75;36.20;99047.89;2170850;82;20993;-80
2021/06/19 08:58:14;;;;;;;5.20;3.17;;;;;;;30.94;36.33;99050.20;2170823;82;20989;-79
2021/06/19 09:01:15;;;;;;;4.97;3.30;;;;;;;31.01;35.96;99046.98;2170556;82;21036;-79
2021/06/19 09:04:16;;;;;;;27.77;5.90;;;;;;;31.15;35.53;99039.80;2170391;82;20972;-78
2021/06/19 09:07:17;;;;;;;6.62;3.58;;;;;;;31.41;35.41;99035.31;2170806;82;20961;-80
2021/06/19 09:10:18;;;;;;;5.55;3.10;;;;;;;31.45;35.22;99040.39;2170680;82;20944;-79
2021/06/19 09:13:19;;;;;;;4.20;3.35;;;;;;;31.39;34.93;99030.03;2170678;82;21020;-79
2021/06/19 09:16:20;;;;;;;10.58;3.92;;;;;;;31.46;35.09;99029.97;2170638;82;20981;-79
2021/06/19 09:19:22;;;;;;;6.22;3.55;;;;;;;31.46;34.73;99035.38;2171043;82;20957;-81
2021/06/19 09:22:23;;;;;;;9.95;3.80;;;;;;;31.43;35.04;99041.47;2170914;82;21037;-80
2021/06/19 09:25:24;;;;;;;4.17;3.58;;;;;;;31.38;34.93;99037.75;2170901;82;20977;-79
2021/06/19 09:28:25;;;;;;;6.25;3.47;;;;;;;31.23;35.50;99043.73;2170750;82;21321;-80
2021/06/19 09:31:26;;;;;;;5.00;3.65;;;;;;;31.43;35.06;99045.03;2170587;82;20936;-80
2021/06/19 09:34:31;;;;;;;10.60;3.67;;;;;;;31.59;35.60;99048.36;2170367;82;21016;-80
2021/06/19 09:37:30;;;;;;;12.58;4.92;;;;;;;31.67;35.27;99040.59;2170228;82;20977;-78
2021/06/19 09:40:31;;;;;;;10.40;3.83;;;;;;;31.88;34.77;99048.14;2170679;82;20901;-80
2021/06/19 09:43:35;;;;;;;7.22;3.30;;;;;;;31.92;33.83;99048.30;2170620;82;21008;-79
2021/06/19 09:46:34;;;;;;;6.33;3.55;;;;;;;31.82;34.07;99055.34;2170758;82;21024;-79
2021/06/19 09:49:35;;;;;;;5.03;3.33;;;;;;;31.81;34.14;99050.91;2170943;82;20936;-79
2021/06/19 09:52:36;;;;;;;6.58;3.42;;;;;;;31.85;34.24;99042.48;2169652;82;20957;-79
2021/06/19 09:55:37;;;;;;;8.28;3.85;;;;;;;31.74;34.18;99049.63;2168138;82;20965;-80
2021/06/19 09:58:38;;;;;;;4.95;3.27;;;;;;;31.68;34.13;99042.80;2168170;82;20957;-81
2021/06/19 10:01:40;;;;;;;181.72;146.77;;;;;;;31.66;34.25;99038.00;2167809;82;20997;-79
2021/06/19 10:04:42;;;;;;;13.08;8.18;;;;;;;31.86;34.23;99036.59;2167740;82;21076;-79
2021/06/19 10:07:44;;;;;;;6.85;3.60;;;;;;;32.24;33.68;99028.45;2167707;82;20966;-80
2021/06/19 10:10:45;;;;;;;5.12;2.87;;;;;;;32.37;33.23;99031.11;2167854;82;20984;-80
2021/06/19 10:13:46;;;;;;;6.22;2.80;;;;;;;32.23;32.80;99034.31;2168081;82;20992;-79
2021/06/19 10:16:47;;;;;;;5.35;3.22;;;;;;;32.02;33.07;99027.76;2167815;82;20897;-79
2021/06/19 10:19:49;;;;;;;4.33;3.08;;;;;;;32.12;33.49;99021.23;2167943;82;20989;-80
2021/06/19 10:22:50;;;;;;;6.17;3.02;;;;;;;32.02;33.12;99015.61;2167833;82;20968;-79
2021/06/19 10:25:51;;;;;;;4.10;2.85;;;;;;;31.83;33.68;99024.19;2167914;82;20984;-79
2021/06/19 10:28:52;;;;;;;5.12;3.10;;;;;;;32.16;33.04;99018.19;2168063;82;20933;-80
2021/06/19 10:31:55;;;;;;;7.97;3.58;;;;;;;31.98;33.32;99021.72;2168120;82;20969;-80
2021/06/19 10:34:56;;;;;;;2.92;2.67;;;;;;;31.92;33.17;99036.16;2167613;82;21044;-80
2021/06/19 10:37:57;;;;;;;5.22;3.00;;;;;;;31.87;32.82;99038.32;2167925;82;20973;-80
2021/06/19 10:40:57;;;;;;;3.77;2.92;;;;;;;32.13;32.17;99028.35;2167885;82;21313;-79
2021/06/19 10:43:58;;;;;;;6.17;3.20;;;;;;;32.21;31.87;99034.91;2167902;82;20973;-80
2021/06/19 10:46:59;;;;;;;3.40;3.08;;;;;;;32.19;32.19;99023.84;2167859;82;21301;-80
2021/06/19 10:50:00;;;;;;;4.85;3.27;;;;;;;31.74;32.45;99010.50;2167873;82;21328;-81
2021/06/19 10:53:01;;;;;;;28.98;25.72;;;;;;;31.98;32.57;99011.41;2169128;82;21384;-80
2021/06/19 10:56:02;;;;;;;7.70;3.25;;;;;;;32.12;32.13;99018.04;2170895;82;20913;-81
2021/06/19 10:59:03;;;;;;;8.83;3.12;;;;;;;31.99;32.24;99014.48;2170646;82;20972;-80
2021/06/19 11:02:04;;;;;;;7.28;3.37;;;;;;;32.28;31.43;99009.70;2170364;82;20925;-81
2021/06/19 11:05:05;;;;;;;9.93;4.08;;;;;;;32.56;31.10;99005.29;2170517;82;21012;-80
2021/06/19 11:08:06;;;;;;;12.75;3.58;;;;;;;32.69;30.84;99005.22;2170662;82;20925;-80
2021/06/19 11:11:07;;;;;;;9.68;3.52;;;;;;;32.65;31.08;99006.92;2170647;82;20953;-81
2021/06/19 11:14:08;;;;;;;6.17;3.12;;;;;;;32.69;30.79;98995.76;2170525;82;21344;-82
2021/06/19 11:17:09;;;;;;;6.37;3.67;;;;;;;32.85;30.54;98997.69;2170619;82;20933;-81
2021/06/19 11:20:11;;;;;;;3.50;3.20;;;;;;;32.80;31.09;98985.02;2170616;82;20949;-81
2021/06/19 11:23:12;;;;;;;4.97;3.40;;;;;;;32.78;31.21;98990.17;2170709;82;20956;-80
2021/06/19 11:26:14;;;;;;;7.57;3.30;;;;;;;32.82;31.91;98983.05;2170807;82;21012;-81
2021/06/19 11:29:15;;;;;;;7.50;3.70;;;;;;;32.74;31.92;98973.78;2170811;82;20921;-80
2021/06/19 11:32:16;;;;;;;6.08;3.65;;;;;;;32.62;32.10;98980.50;2170385;82;21387;-80
2021/06/19 11:35:17;;;;;;;9.43;3.35;;;;;;;32.45;32.18;98972.82;2170788;82;20980;-81
2021/06/19 11:38:18;;;;;;;3.52;3.22;;;;;;;32.37;32.29;98960.38;2170718;82;21352;-80
2021/06/19 11:41:19;;;;;;;5.28;3.52;;;;;;;32.53;32.31;98968.19;2170720;82;21366;-80
2021/06/19 11:44:20;;;;;;;37.75;4.80;;;;;;;32.65;32.24;98961.84;2171082;82;20929;-83
2021/06/19 11:47:21;;;;;;;5.45;3.35;;;;;;;32.61;32.05;98965.27;2172199;82;20933;-83
2021/06/19 11:50:22;;;;;;;9.95;3.10;;;;;;;32.93;31.66;98964.16;2172186;82;20932;-84
2021/06/19 11:53:22;;;;;;;4.85;2.80;;;;;;;33.22;31.22;98963.75;2167284;82;21021;-83
2021/06/19 11:56:26;;;;;;;3.50;2.75;;;;;;;33.41;29.71;98955.92;2161883;82;20930;-83
2021/06/19 11:59:30;;;;;;;4.22;2.70;;;;;;;33.34;29.48;98961.45;2162018;82;20971;-80
2021/06/19 12:02:30;;;;;;;;;;;;;;;33.10;29.52;98956.60;2163817;82;21021;-82
2021/06/19 12:05:31;;;;;;;4.87;3.70;;;;;;;32.96;30.45;98953.62;2161097;82;20135;-83
2021/06/19 12:08:32;;;;;;;9.48;4.25;;;;;;;33.00;30.04;98951.55;2161087;82;20898;-82
2021/06/19 12:11:33;;;;;;;5.03;2.90;;;;;;;32.62;30.06;98937.27;2161009;82;20918;-80
2021/06/19 12:14:34;;;;;;;3.20;2.90;;;;;;;32.97;30.11;98943.19;2161055;82;21421;-79
2021/06/19 12:17:35;;;;;;;8.08;3.67;;;;;;;33.31;30.36;98939.19;2160741;82;21413;-82
2021/06/19 12:20:36;;;;;;;3.33;3.02;;;;;;;33.31;30.36;98939.19;2161040;82;20918;-81
2021/06/19 12:23:37;;;;;;;4.65;2.92;;;;;;;33.58;29.51;98929.34;2160713;82;20924;-81
2021/06/19 12:26:38;;;;;;;4.70;3.25;;;;;;;33.85;28.91;98929.36;2160099;82;20957;-79
2021/06/19 12:29:39;;;;;;;5.37;3.00;;;;;;;34.10;28.20;98927.33;2160252;82;20898;-79
2021/06/19 12:32:41;;;;;;;4.45;3.02;;;;;;;34.19;28.70;98938.25;2160250;82;20997;-80
2021/06/19 12:35:42;;;;;;;4.37;3.17;;;;;;;34.03;28.95;98932.39;2160702;81;21410;-80
2021/06/19 12:38:43;;;;;;;5.47;2.80;;;;;;;33.95;29.25;98934.87;2161153;82;20969;-79
2021/06/19 12:41:44;;;;;;;7.15;3.08;;;;;;;33.83;29.01;98922.35;2161188;82;20926;-79
2021/06/19 12:44:45;;;;;;;5.25;3.20;;;;;;;33.77;29.35;98915.53;2161403;82;20965;-80
2021/06/19 12:47:46;;;;;;;4.28;3.27;;;;;;;33.86;29.26;98923.45;2162099;82;20930;-81
2021/06/19 12:50:47;;;;;;;11.20;3.90;;;;;;;33.60;29.56;98924.66;2162528;82;20982;-81
2021/06/19 12:53:48;;;;;;;11.90;5.00;;;;;;;33.60;29.83;98917.90;2166505;82;20937;-80
2021/06/19 12:56:49;;;;;;;11.45;8.95;;;;;;;33.20;29.81;98919.23;2170065;82;21000;-80
2021/06/19 12:59:51;;;;;;;5.90;4.00;;;;;;;33.07;30.37;98909.52;2168334;82;20932;-80
2021/06/19 13:02:53;;;;;;;;;;;;;;;33.40;30.52;98901.93;2171699;82;20937;-84
2021/06/19 13:05:53;;;;;;;6.35;3.22;;;;;;;33.47;29.86;98913.48;2169253;82;20115;-83
2021/06/19 13:08:55;;;;;;;3.60;3.15;;;;;;;33.58;29.30;98913.96;2169588;82;20976;-83
2021/06/19 13:11:56;;;;;;;8.28;3.12;;;;;;;33.70;29.27;98916.16;2169696;82;20976;-83
2021/06/19 13:14:57;;;;;;;3.75;3.22;;;;;;;34.02;28.85;98911.72;2169621;82;20932;-83
2021/06/19 13:17:58;;;;;;;5.67;3.60;;;;;;;33.98;29.20;98906.19;2169881;82;20921;-83
2021/06/19 13:21:01;;;;;;;6.10;3.58;;;;;;;33.92;29.23;98904.48;2169690;82;20961;-84
2021/06/19 13:24:02;;;;;;;6.95;3.40;;;;;;;34.24;28.89;98909.91;2169931;82;20954;-85
2021/06/19 13:27:09;;;;;;;10.28;3.30;;;;;;;34.40;28.73;98912.58;2146528;82;20933;-82
2021/06/19 13:30:12;;;;;;;4.65;3.10;;;;;;;34.59;28.34;98901.52;2169384;82;20961;-83
2021/06/19 13:33:12;;;;;;;5.62;3.60;;;;;;;34.22;28.56;98905.12;2169419;82;20952;-82
2021/06/19 13:36:15;;;;;;;;;;;;;;;33.96;28.87;98892.41;2171228;82;21016;-83
2021/06/19 13:39:22;;;;;;;4.25;3.85;;;;;;;34.23;28.80;98895.51;2169834;82;20098;-83
2021/06/19 13:42:21;;;;;;;3.70;3.40;;;;;;;34.28;28.92;98902.75;2169134;82;21317;-82
2021/06/19 13:45:22;;;;;;;5.78;3.22;;;;;;;33.99;28.54;98897.56;2169380;82;20973;-82
2021/06/19 13:48:23;;;;;;;5.20;3.20;;;;;;;33.98;28.90;98884.52;2169419;82;20929;-82
2021/06/19 13:51:24;;;;;;;5.87;3.20;;;;;;;33.75;29.14;98877.39;2169102;82;21364;-82
2021/06/19 13:54:26;;;;;;;4.85;3.30;;;;;;;33.57;29.09;98883.83;2168350;82;21321;-81
2021/06/19 13:57:27;;;;;;;2.98;2.72;;;;;;;33.50;29.03;98888.02;2168641;82;20941;-82
2021/06/19 14:00:30;;;;;;;5.10;3.10;;;;;;;33.82;28.37;98880.02;2168428;82;20918;-81
2021/06/19 14:03:31;;;;;;;;;;;;;;;33.98;28.04;98879.60;2171143;82;21024;-81
2021/06/19 14:06:31;;;;;;;5.12;3.30;;;;;;;34.06;28.38;98882.03;2168461;82;20122;-82
2021/06/19 14:09:33;;;;;;;4.95;2.87;;;;;;;33.95;28.00;98876.66;2168607;82;21332;-82
2021/06/19 14:12:33;;;;;;;8.15;3.30;;;;;;;33.54;28.60;98875.95;2168391;82;21008;-81